Time;durP1;ratioP1;P1;durP2;ratioP2;P2;SDS_P1;SDS_P2;PMS_P1;PMS_P2;Temp;Humidity;BMP_temperature;BMP_pressure;BME280_temperature;BME280_humidity;BME280_pressure;Samples;Min_cycle;Max_cycle;Signal;HPM_P1;HPM_P2
2022/08/29 00:01:03;;;;;;;4.85;1.20;;;;;;;16.91;100.00;102232.50;5035671;28;20052;-94
2022/08/29 00:03:31;;;;;;;2.72;1.10;;;;;;;16.80;100.00;102210.84;5035175;28;20057;-94
2022/08/29 00:05:57;;;;;;;2.88;1.20;;;;;;;16.83;100.00;102222.19;5035962;28;20049;-94
2022/08/29 00:08:24;;;;;;;4.82;1.30;;;;;;;17.11;100.00;102225.53;5035578;28;20498;-94
2022/08/29 00:10:52;;;;;;;1.83;0.77;;;;;;;17.28;100.00;102220.38;5035264;28;20052;-94
2022/08/29 00:13:19;;;;;;;4.78;1.27;;;;;;;17.07;100.00;102217.72;5035704;28;20049;-93
2022/08/29 00:15:46;;;;;;;2.33;0.88;;;;;;;17.06;100.00;102196.59;5035714;28;20556;-94
2022/08/29 00:18:15;;;;;;;3.13;1.17;;;;;;;16.78;100.00;102202.13;5035548;28;20072;-94
2022/08/29 00:20:43;;;;;;;4.88;1.33;;;;;;;16.96;100.00;102200.53;5035042;28;20069;-93
2022/08/29 00:23:10;;;;;;;2.08;0.95;;;;;;;16.83;100.00;102190.47;5035176;28;20060;-94
2022/08/29 00:25:38;;;;;;;3.45;1.10;;;;;;;16.76;100.00;102182.81;5035068;28;20045;-94
2022/08/29 00:28:05;;;;;;;2.20;0.95;;;;;;;16.82;100.00;102172.84;5035286;28;20049;-94
2022/08/29 00:30:33;;;;;;;3.45;1.17;;;;;;;17.07;100.00;102212.41;5034805;28;20050;-94
2022/08/29 00:33:00;;;;;;;5.32;1.33;;;;;;;16.82;100.00;102164.03;5034983;28;20049;-94
2022/08/29 00:35:31;;;;;;;3.15;1.02;;;;;;;16.80;100.00;102174.72;5034409;28;20050;-94
2022/08/29 00:37:58;;;;;;;3.75;1.17;;;;;;;16.78;100.00;102159.81;5035122;28;20451;-94
2022/08/29 00:40:33;;;;;;;3.58;1.30;;;;;;;16.98;100.00;102178.41;5033297;28;20055;-94
2022/08/29 00:43:00;;;;;;;2.78;1.20;;;;;;;16.96;100.00;102172.28;5017292;28;20406;-93
2022/08/29 00:45:28;;;;;;;3.90;1.20;;;;;;;17.00;100.00;102197.72;5014248;28;20061;-93
2022/08/29 00:48:03;;;;;;;3.33;1.20;;;;;;;17.13;100.00;102192.75;5031755;28;20117;-93
2022/08/29 00:50:35;;;;;;;2.60;1.02;;;;;;;17.29;100.00;102213.31;5022018;28;20045;-93
2022/08/29 00:53:05;;;;;;;3.58;1.08;;;;;;;17.12;100.00;102209.56;5033544;28;20132;-92
2022/08/29 00:55:34;;;;;;;2.40;1.02;;;;;;;16.88;100.00;102192.94;5034949;28;20537;-92
2022/08/29 00:58:06;;;;;;;8.57;1.30;;;;;;;16.96;100.00;102203.19;5031609;28;20056;-92
2022/08/29 01:00:36;;;;;;;4.47;1.30;;;;;;;16.75;100.00;102196.94;5024715;28;20042;-92
2022/08/29 01:03:07;;;;;;;3.33;1.00;;;;;;;16.87;100.00;102192.09;5027160;28;20053;-93
2022/08/29 01:05:35;;;;;;;5.75;1.10;;;;;;;17.04;100.00;102215.19;5033234;28;20053;-94
2022/08/29 01:08:02;;;;;;;3.85;1.10;;;;;;;16.97;100.00;102197.00;5033883;28;20049;-94
2022/08/29 01:13:15;;;;;;;3.55;1.10;;;;;;;17.00;100.00;102199.50;5029842;28;21272;-94
2022/08/29 01:15:43;;;;;;;3.10;1.13;;;;;;;17.13;100.00;102213.09;5032473;28;20139;-94
2022/08/29 01:18:12;;;;;;;5.68;1.25;;;;;;;17.03;100.00;102208.19;5028558;28;20134;-93
2022/08/29 01:20:56;;;;;;;6.07;1.17;;;;;;;17.05;100.00;102210.75;5026827;28;20546;-93
2022/08/29 01:23:40;;;;;;;2.15;0.98;;;;;;;16.73;100.00;102159.13;5032408;28;20060;-94
2022/08/29 01:26:09;;;;;;;3.88;1.08;;;;;;;17.01;100.00;102207.34;5032283;28;20148;-93
2022/08/29 01:28:40;;;;;;;4.07;1.20;;;;;;;17.02;100.00;102200.31;5028566;28;20058;-93
2022/08/29 01:31:09;;;;;;;2.20;1.00;;;;;;;17.13;100.00;102205.16;5031338;28;20042;-94
2022/08/29 01:33:55;;;;;;;3.25;0.95;;;;;;;16.99;100.00;102206.56;5033055;28;20049;-94
2022/08/29 01:36:26;;;;;;;3.88;1.13;;;;;;;16.87;100.00;102202.66;5032716;28;20053;-94
2022/08/29 01:38:53;;;;;;;1.83;1.00;;;;;;;16.99;100.00;102200.41;5028641;28;20057;-94
2022/08/29 01:41:21;;;;;;;2.67;1.00;;;;;;;16.86;100.00;102193.00;5030038;28;20555;-93
2022/08/29 01:43:51;;;;;;;4.60;1.40;;;;;;;17.01;100.00;102195.91;5033957;28;20476;-94
2022/08/29 01:46:30;;;;;;;2.75;1.08;;;;;;;17.01;100.00;102207.34;5025322;28;20045;-94
2022/08/29 01:49:01;;;;;;;2.08;1.00;;;;;;;16.85;100.00;102171.88;5021044;28;20512;-94
2022/08/29 01:51:28;;;;;;;2.92;1.10;;;;;;;16.93;100.00;102172.44;5017028;28;20057;-93
2022/08/29 01:53:55;;;;;;;3.55;1.20;;;;;;;16.93;100.00;102198.00;5029367;28;20068;-93
2022/08/29 01:56:25;;;;;;;4.50;1.33;;;;;;;16.94;100.00;102205.91;5037159;28;20049;-93
2022/08/29 01:58:53;;;;;;;4.40;1.17;;;;;;;16.76;100.00;102183.66;5031502;28;20048;-93
2022/08/29 02:01:23;;;;;;;3.55;1.27;;;;;;;16.74;100.00;102166.16;5034345;28;20048;-93
2022/08/29 02:03:51;;;;;;;4.65;1.30;;;;;;;16.78;100.00;102179.16;5037343;28;20053;-93
2022/08/29 02:06:18;;;;;;;3.60;1.00;;;;;;;17.24;100.00;102208.19;5037604;28;20049;-93
2022/08/29 02:08:45;;;;;;;3.90;1.20;;;;;;;17.16;100.00;102202.38;5028136;28;20053;-93
2022/08/29 02:11:15;;;;;;;5.93;1.40;;;;;;;17.04;100.00;102214.31;5037350;28;20053;-93
2022/08/29 02:13:54;;;;;;;4.18;1.08;;;;;;;17.09;100.00;102212.34;5036874;28;20059;-93
2022/08/29 02:16:22;;;;;;;3.30;1.08;;;;;;;16.93;100.00;102205.94;5036874;28;20050;-93
2022/08/29 02:18:49;;;;;;;4.78;1.20;;;;;;;16.87;100.00;102180.63;5037169;28;20140;-93
2022/08/29 02:21:19;;;;;;;5.18;1.33;;;;;;;16.74;100.00;102169.66;5023250;28;20056;-94
2022/08/29 02:23:48;;;;;;;3.00;1.02;;;;;;;16.85;100.00;102188.59;5035173;28;20480;-93
2022/08/29 02:26:17;;;;;;;3.00;1.00;;;;;;;17.12;100.00;102211.34;5024457;28;20072;-93
2022/08/29 02:28:45;;;;;;;2.63;0.90;;;;;;;17.05;100.00;102214.28;5033493;28;20479;-93
2022/08/29 02:31:12;;;;;;;2.72;1.17;;;;;;;17.02;100.00;102200.31;5035601;28;20046;-93
2022/08/29 02:33:39;;;;;;;3.42;1.00;;;;;;;17.00;100.00;102192.44;5035991;28;20142;-93
2022/08/29 02:36:07;;;;;;;2.28;0.95;;;;;;;17.14;100.00;102209.50;5035786;28;20139;-93
2022/08/29 02:38:36;;;;;;;2.72;1.00;;;;;;;16.77;100.00;102164.25;5031694;28;20069;-93
2022/08/29 02:41:02;;;;;;;2.55;1.08;;;;;;;17.07;100.00;102214.22;5015753;28;20042;-93
2022/08/29 02:43:29;;;;;;;3.35;1.00;;;;;;;17.06;100.00;102199.25;5016689;28;20054;-93
2022/08/29 02:45:56;;;;;;;1.95;0.90;;;;;;;16.75;100.00;102152.00;5020519;28;20049;-93
2022/08/29 02:48:23;;;;;;;3.50;1.35;;;;;;;16.87;100.00;102180.63;5034019;28;20060;-93
2022/08/29 02:50:52;;;;;;;4.30;1.20;;;;;;;16.95;100.00;102209.41;5032888;28;20046;-93
2022/08/29 02:53:23;;;;;;;3.63;1.10;;;;;;;17.05;100.00;102214.28;5035752;28;20479;-93
2022/08/29 02:55:53;;;;;;;4.50;1.27;;;;;;;17.01;100.00;102220.59;5035614;28;20132;-93
2022/08/29 02:58:21;;;;;;;3.92;1.30;;;;;;;16.69;100.00;102179.56;5034174;28;20057;-93
2022/08/29 03:00:48;;;;;;;4.13;1.38;;;;;;;16.74;100.00;102177.59;5016074;28;20056;-93
2022/08/29 03:03:17;;;;;;;4.03;1.40;;;;;;;16.66;100.00;102174.38;5023617;28;20594;-93
2022/08/29 03:05:45;;;;;;;4.35;1.30;;;;;;;16.70;100.00;102176.84;5035611;28;20492;-93
2022/08/29 03:08:12;;;;;;;5.47;1.20;;;;;;;16.70;100.00;102162.78;5035139;28;20049;-94
2022/08/29 03:10:40;;;;;;;3.03;1.17;;;;;;;16.84;100.00;102204.56;5024408;28;20112;-93
2022/08/29 03:13:08;;;;;;;3.25;1.30;;;;;;;16.84;100.00;102210.72;5033720;28;20053;-94
2022/08/29 03:15:35;;;;;;;3.42;1.20;;;;;;;16.75;100.00;102186.38;5035389;28;20085;-94
2022/08/29 03:18:02;;;;;;;5.05;1.25;;;;;;;16.78;100.00;102212.72;5035971;28;20045;-94
2022/08/29 03:20:28;;;;;;;3.40;1.08;;;;;;;16.71;100.00;102185.63;5025148;28;20054;-93
2022/08/29 03:22:56;;;;;;;4.13;1.20;;;;;;;16.94;100.00;102205.91;5035255;28;20056;-93
2022/08/29 03:25:23;;;;;;;6.60;1.15;;;;;;;16.88;100.00;102212.31;5035132;28;20061;-94
2022/08/29 03:27:51;;;;;;;3.17;1.15;;;;;;;16.69;100.00;102183.06;5034359;28;20053;-93
2022/08/29 03:30:19;;;;;;;3.40;1.20;;;;;;;16.78;100.00;102163.31;5032860;28;20056;-94
2022/08/29 03:32:49;;;;;;;4.15;1.30;;;;;;;16.97;100.00;102208.41;5035258;28;20385;-94
2022/08/29 03:35:18;;;;;;;3.00;1.10;;;;;;;16.70;100.00;102179.50;5030520;28;20129;-94
2022/08/29 03:37:45;;;;;;;4.72;1.55;;;;;;;16.51;100.00;102146.78;5027275;28;20095;-94
2022/08/29 03:40:12;;;;;;;2.92;1.00;;;;;;;16.87;100.00;102177.97;5031175;28;20053;-94
2022/08/29 03:42:41;;;;;;;2.83;1.02;;;;;;;16.92;100.00;102197.16;5035629;28;20041;-94
2022/08/29 03:45:12;;;;;;;2.50;1.08;;;;;;;16.63;100.00;102188.59;5035467;28;20057;-94
2022/08/29 03:47:40;;;;;;;4.82;1.40;;;;;;;16.82;100.00;102215.19;5035011;28;20407;-94
2022/08/29 03:50:07;;;;;;;3.03;1.00;;;;;;;17.01;100.00;102210.00;5028159;28;20052;-94
2022/08/29 03:52:34;;;;;;;4.65;1.15;;;;;;;16.82;100.00;102199.31;5034440;28;20045;-94
2022/08/29 03:55:02;;;;;;;3.28;1.20;;;;;;;16.74;100.00;102185.53;5034463;28;20049;-94
2022/08/29 03:57:31;;;;;;;3.30;1.13;;;;;;;16.79;100.00;102201.22;5032812;28;20056;-94
2022/08/29 03:59:58;;;;;;;3.47;1.02;;;;;;;16.67;100.00;102186.69;5014055;28;20060;-93
2022/08/29 04:02:25;;;;;;;2.20;1.10;;;;;;;16.59;100.00;102189.66;5028919;28;20151;-94
2022/08/29 04:05:07;;;;;;;5.25;1.38;;;;;;;16.66;100.00;102201.72;5034235;28;20064;-93
2022/08/29 04:07:47;;;;;;;3.50;1.20;;;;;;;16.60;100.00;102188.72;5034731;28;20543;-92
2022/08/29 04:10:22;;;;;;;4.10;1.15;;;;;;;16.72;100.00;102218.25;5024848;28;20053;-93
2022/08/29 04:12:49;;;;;;;4.10;1.17;;;;;;;16.38;100.00;102179.91;5030524;28;20048;-93
2022/08/29 04:15:21;;;;;;;3.20;1.20;;;;;;;16.67;100.00;102223.72;5034386;28;20384;-94
2022/08/29 04:17:56;;;;;;;7.25;1.40;;;;;;;16.35;100.00;102183.53;5033682;28;20045;-94
2022/08/29 04:20:26;;;;;;;4.43;1.23;;;;;;;16.63;100.00;102227.41;5023287;28;20056;-93
2022/08/29 04:22:55;;;;;;;4.00;1.27;;;;;;;16.70;100.00;102232.38;5033302;28;20049;-93
2022/08/29 04:25:24;;;;;;;4.22;1.10;;;;;;;16.75;100.00;102234.88;5033353;28;20049;-93
2022/08/29 04:27:52;;;;;;;5.82;1.20;;;;;;;16.44;100.00;102209.59;5028377;28;20056;-94
2022/08/29 04:30:21;;;;;;;3.42;1.15;;;;;;;16.42;100.00;102222.03;5018816;28;20053;-92
2022/08/29 04:32:48;;;;;;;3.60;1.10;;;;;;;16.45;100.00;102206.06;5022010;28;20050;-94
2022/08/29 04:35:16;;;;;;;3.00;1.20;;;;;;;16.51;100.00;102229.59;5019665;28;20053;-92
2022/08/29 04:37:43;;;;;;;5.25;1.20;;;;;;;16.51;100.00;102212.88;5022338;28;20050;-93
2022/08/29 04:40:14;;;;;;;4.15;1.40;;;;;;;16.59;100.00;102217.84;5028001;28;20060;-93
2022/08/29 04:42:42;;;;;;;3.38;1.00;;;;;;;16.59;100.00;102210.81;5025979;28;20133;-94
2022/08/29 04:45:11;;;;;;;4.00;1.42;;;;;;;16.57;100.00;102230.28;5027589;28;20045;-93
2022/08/29 04:47:39;;;;;;;3.20;1.10;;;;;;;16.65;100.00;102229.06;5027874;28;20064;-93
2022/08/29 04:50:09;;;;;;;3.13;1.10;;;;;;;16.66;100.00;102232.56;5023380;28;20053;-94
2022/08/29 04:52:36;;;;;;;7.85;1.30;;;;;;;16.24;100.00;102209.53;5032382;28;20048;-93
2022/08/29 04:55:04;;;;;;;1.50;0.90;;;;;;;16.39;100.00;102219.50;5032464;28;20053;-93
2022/08/29 04:57:33;;;;;;;3.67;1.20;;;;;;;16.16;100.00;102212.44;5031951;28;20088;-93
2022/08/29 05:00:00;;;;;;;4.28;1.27;;;;;;;16.17;100.00;102195.69;5032435;28;20054;-93
2022/08/29 05:02:27;;;;;;;3.20;1.10;;;;;;;16.42;100.00;102229.09;5018181;28;20546;-93
2022/08/29 05:04:55;;;;;;;2.45;1.08;;;;;;;16.47;100.00;102225.34;5031615;28;20085;-93
2022/08/29 05:07:25;;;;;;;3.28;1.25;;;;;;;16.65;100.00;102250.22;5032303;28;20060;-93
2022/08/29 05:10:05;;;;;;;4.45;1.05;;;;;;;16.08;100.00;102209.25;5012111;28;20065;-93
2022/08/29 05:12:34;;;;;;;3.90;1.33;;;;;;;15.91;100.00;102220.41;5026454;28;20050;-94
2022/08/29 05:15:02;;;;;;;2.83;1.00;;;;;;;16.26;100.00;102242.91;5025976;28;20046;-92
2022/08/29 05:17:29;;;;;;;3.30;1.15;;;;;;;16.39;100.00;102255.66;5043449;28;20060;-93
2022/08/29 05:19:55;;;;;;;3.30;1.20;;;;;;;16.40;100.00;102255.59;5013250;28;20050;-94
2022/08/29 05:22:22;;;;;;;3.92;1.25;;;;;;;16.13;100.00;102213.44;5020638;28;20410;-93
2022/08/29 05:24:49;;;;;;;4.45;1.35;;;;;;;16.32;100.00;102261.19;5029188;28;20046;-94
2022/08/29 05:27:19;;;;;;;2.97;1.13;;;;;;;16.42;100.00;102258.19;5014316;28;20496;-94
2022/08/29 05:29:49;;;;;;;4.32;1.40;;;;;;;16.46;100.00;102262.41;5014577;28;20046;-94
2022/08/29 05:32:18;;;;;;;3.10;1.10;;;;;;;16.58;100.00;102263.75;5014193;28;20052;-95
2022/08/29 05:34:46;;;;;;;2.72;1.13;;;;;;;16.35;100.00;102215.25;5014809;28;20100;-92
2022/08/29 05:37:15;;;;;;;3.92;1.05;;;;;;;16.66;100.00;102270.47;5013303;28;20421;-95
2022/08/29 05:39:42;;;;;;;4.40;1.20;;;;;;;16.55;100.00;102242.69;5014103;28;20050;-93
2022/08/29 05:42:10;;;;;;;2.88;1.00;;;;;;;16.78;100.00;102270.91;5014457;28;20046;-96
2022/08/29 05:44:39;;;;;;;4.63;1.15;;;;;;;16.79;100.00;102268.19;5017313;28;20056;-94
2022/08/29 05:47:09;;;;;;;5.68;1.40;;;;;;;16.52;100.00;102251.63;5013782;28;20060;-95
2022/08/29 05:49:37;;;;;;;4.68;1.40;;;;;;;16.51;100.00;102271.91;5018521;28;20088;-93
2022/08/29 05:52:04;;;;;;;5.20;1.40;;;;;;;16.29;100.00;102237.50;5013530;28;20052;-94
2022/08/29 05:54:36;;;;;;;5.47;1.38;;;;;;;16.44;100.00;102257.19;5032785;28;20063;-94
2022/08/29 05:57:04;;;;;;;2.90;1.13;;;;;;;16.48;100.00;102269.41;5033527;28;20412;-93
2022/08/29 05:59:31;;;;;;;3.10;1.20;;;;;;;16.35;100.00;102246.13;5022733;28;20052;-93
2022/08/29 06:01:58;;;;;;;4.97;1.33;;;;;;;16.45;100.00;102243.06;5013420;28;20049;-94
2022/08/29 06:04:25;;;;;;;3.97;1.20;;;;;;;16.30;100.00;102209.28;5013646;28;20149;-94
2022/08/29 06:06:51;;;;;;;3.75;1.10;;;;;;;16.42;100.00;102242.31;5013838;28;20053;-96
2022/08/29 06:09:18;;;;;;;3.67;1.25;;;;;;;16.67;100.00;102284.53;5014570;28;20053;-95
2022/08/29 06:11:48;;;;;;;3.17;1.30;;;;;;;16.64;100.00;102284.66;5015048;28;20050;-96
2022/08/29 06:14:15;;;;;;;3.70;1.20;;;;;;;16.46;100.00;102246.56;5023331;28;20083;-95
2022/08/29 06:16:47;;;;;;;4.03;1.30;;;;;;;16.70;100.00;102277.34;5026526;28;20052;-96
2022/08/29 06:19:33;;;;;;;2.97;1.10;;;;;;;16.57;100.00;102270.78;5026132;28;20054;-96
2022/08/29 06:22:15;;;;;;;3.10;1.30;;;;;;;16.58;100.00;102280.47;5027148;28;20038;-96
2022/08/29 06:24:55;;;;;;;2.17;1.00;;;;;;;16.38;100.00;102260.09;5012990;28;20126;-96
2022/08/29 06:27:36;;;;;;;4.13;1.40;;;;;;;16.67;100.00;102255.44;5028617;28;20049;-96
2022/08/29 06:30:18;;;;;;;2.95;1.10;;;;;;;16.57;100.00;102254.94;5013777;28;20140;-96
2022/08/29 06:33:00;;;;;;;3.30;1.10;;;;;;;16.76;100.00;102281.53;5030817;28;20105;-96
2022/08/29 06:35:41;;;;;;;2.42;1.10;;;;;;;16.82;100.00;102251.31;5017610;28;20495;-96
2022/08/29 06:38:22;;;;;;;4.32;1.27;;;;;;;16.79;100.00;102285.84;5031487;28;20040;-96
2022/08/29 06:41:08;;;;;;;3.50;1.20;;;;;;;16.94;100.00;102282.63;5015171;28;20074;-96
2022/08/29 06:43:48;;;;;;;3.90;1.20;;;;;;;16.78;100.00;102250.59;5029274;28;20132;-96
2022/08/29 06:46:35;;;;;;;3.40;1.10;;;;;;;16.61;100.00;102280.34;5030862;28;20043;-96
2022/08/29 06:49:17;;;;;;;6.28;1.35;;;;;;;16.30;100.00;102255.06;5030854;28;20042;-96
2022/08/29 06:51:58;;;;;;;2.53;1.05;;;;;;;16.69;100.00;102285.34;5028787;28;20062;-96
2022/08/29 06:54:39;;;;;;;3.70;1.17;;;;;;;16.39;100.00;102259.16;5028475;28;20476;-96
2022/08/29 06:57:19;;;;;;;4.72;1.30;;;;;;;16.73;100.00;102264.91;5029076;28;20096;-96
2022/08/29 07:00:00;;;;;;;4.00;1.25;;;;;;;16.61;100.00;102243.34;5030662;28;20113;-96
2022/08/29 07:02:41;;;;;;;4.03;1.23;;;;;;;16.43;100.00;102260.78;5030036;28;20093;-96
2022/08/29 07:05:22;;;;;;;2.53;1.08;;;;;;;16.40;100.00;102258.25;5031845;28;20033;-96
2022/08/29 07:08:03;;;;;;;4.13;1.20;;;;;;;16.75;100.00;102294.81;5032068;28;20050;-96
2022/08/29 07:10:44;;;;;;;2.35;0.98;;;;;;;16.61;100.00;102287.41;5032199;28;20064;-96
2022/08/29 07:13:25;;;;;;;1.88;0.90;;;;;;;16.58;100.00;102288.41;5032491;28;20105;-96
2022/08/29 07:16:11;;;;;;;4.35;1.33;;;;;;;16.60;100.00;102257.47;5032179;28;20045;-96
2022/08/29 07:18:52;;;;;;;3.65;1.00;;;;;;;16.69;100.00;102288.84;5028680;28;20045;-95
2022/08/29 07:21:28;;;;;;;5.47;1.35;;;;;;;16.66;100.00;102285.44;5031814;28;20059;-96
2022/08/29 07:24:09;;;;;;;4.00;1.30;;;;;;;16.51;100.00;102285.13;5030985;28;20045;-94
2022/08/29 07:26:50;;;;;;;4.95;1.30;;;;;;;16.25;100.00;102298.44;5027892;28;20050;-96
2022/08/29 07:29:30;;;;;;;3.83;1.23;;;;;;;16.38;100.00;102307.66;5029370;28;20085;-96
2022/08/29 07:32:11;;;;;;;3.45;1.20;;;;;;;16.29;100.00;102300.94;5029758;28;20049;-96
2022/08/29 07:34:51;;;;;;;5.35;1.33;;;;;;;16.26;100.00;102308.97;5031102;28;20531;-96
2022/08/29 07:37:32;;;;;;;4.40;1.30;;;;;;;16.32;100.00;102306.13;5030187;28;20073;-96
2022/08/29 07:40:16;;;;;;;4.57;1.30;;;;;;;16.49;100.00;102321.34;5016449;28;20050;-96
2022/08/29 07:42:56;;;;;;;3.00;1.10;;;;;;;16.26;100.00;102281.69;5028565;28;20032;-96
2022/08/29 07:45:38;;;;;;;3.47;1.30;;;;;;;16.62;100.00;102311.16;5028402;28;20109;-96
2022/08/29 07:48:20;;;;;;;4.28;1.48;;;;;;;16.49;100.00;102275.53;5028037;28;20480;-96
2022/08/29 07:51:00;;;;;;;4.93;1.30;;;;;;;16.82;100.00;102310.41;5027883;28;20061;-96
2022/08/29 07:53:42;;;;;;;2.97;1.08;;;;;;;16.60;100.00;102268.03;5029013;28;20049;-95
2022/08/29 07:56:29;;;;;;;2.95;1.15;;;;;;;16.82;100.00;102318.34;5029608;28;20077;-96
2022/08/29 07:59:10;;;;;;;4.18;1.27;;;;;;;16.45;100.00;102279.19;5028992;28;20054;-96
2022/08/29 08:01:51;;;;;;;2.75;1.13;;;;;;;16.85;100.00;102307.66;5043963;28;20061;-96
2022/08/29 08:04:31;;;;;;;5.20;1.50;;;;;;;16.59;100.00;102274.28;5028305;28;20064;-95
2022/08/29 08:07:12;;;;;;;7.30;1.98;;;;;;;16.46;100.00;102302.06;5026950;28;20050;-96
2022/08/29 08:09:53;;;;;;;2.63;1.20;;;;;;;16.36;100.00;102271.63;5027572;28;20460;-96
2022/08/29 08:12:33;;;;;;;5.18;1.23;;;;;;;16.80;100.00;102306.06;5028125;28;20042;-96
2022/08/29 08:15:15;;;;;;;3.95;1.40;;;;;;;16.92;100.00;102297.69;5028130;28;20049;-96
2022/08/29 08:17:55;;;;;;;6.13;1.20;;;;;;;16.67;100.00;102260.75;5028264;28;20045;-96
2022/08/29 08:20:36;;;;;;;2.45;1.08;;;;;;;16.87;100.00;102271.44;5027594;28;20061;-96
2022/08/29 08:23:17;;;;;;;2.25;1.02;;;;;;;16.97;100.00;102301.03;5028438;28;20052;-96
2022/08/29 08:25:59;;;;;;;4.93;1.10;;;;;;;16.93;100.00;102307.38;5028324;28;20088;-96
2022/08/29 08:28:40;;;;;;;3.15;1.10;;;;;;;16.82;100.00;102283.06;5027892;28;20045;-96
2022/08/29 08:31:13;;;;;;;2.38;0.98;;;;;;;17.30;100.00;102308.53;5025668;28;20050;-96
2022/08/29 08:33:43;;;;;;;4.25;1.42;;;;;;;17.63;100.00;102313.34;5023094;28;20448;-95
2022/08/29 08:36:28;;;;;;;4.13;1.23;;;;;;;17.71;100.00;102310.38;5024284;28;20065;-96
2022/08/29 08:39:10;;;;;;;5.55;1.42;;;;;;;17.43;100.00;102287.72;5024178;28;20492;-96
2022/08/29 08:41:59;;;;;;;6.90;1.30;;;;;;;17.20;100.00;102291.31;5024380;28;20045;-94
2022/08/29 08:44:55;;;;;;;5.45;1.30;;;;;;;17.18;100.00;102309.88;5023782;28;20068;-96
2022/08/29 08:47:50;;;;;;;4.40;1.30;;;;;;;17.03;100.00;102292.84;5022269;28;20113;-96
2022/08/29 08:50:43;;;;;;;4.13;1.00;;;;;;;17.33;100.00;102326.91;5023746;28;20045;-94
2022/08/29 08:53:39;;;;;;;3.63;1.27;;;;;;;17.42;100.00;102325.69;5025756;28;20046;-95
2022/08/29 08:56:45;;;;;;;3.90;1.10;;;;;;;17.23;100.00;102310.56;5023398;28;20330;-95
2022/08/29 08:59:42;;;;;;;5.30;1.17;;;;;;;17.39;100.00;102334.63;5024155;28;20100;-96
2022/08/29 09:02:41;;;;;;;4.20;1.40;;;;;;;17.46;100.00;102333.44;5024623;28;20042;-96
2022/08/29 09:05:51;;;;;;;4.80;1.30;;;;;;;17.31;100.00;102335.88;5024690;28;20057;-96
2022/08/29 09:08:51;;;;;;;4.70;1.23;;;;;;;17.33;100.00;102340.16;4995197;28;20113;-95
2022/08/29 09:12:06;;;;;;;3.15;1.20;;;;;;;17.38;100.00;102337.34;5025513;28;20060;-96
2022/08/29 09:14:55;;;;;;;5.40;1.20;;;;;;;17.45;100.00;102333.50;5025553;28;20069;-96
2022/08/29 09:17:42;;;;;;;6.00;1.45;;;;;;;17.01;100.00;102276.16;5026090;28;20042;-96
2022/08/29 09:20:29;;;;;;;5.63;1.10;;;;;;;17.27;100.00;102328.03;5026047;28;20140;-96
2022/08/29 09:23:48;;;;;;;2.85;1.05;;;;;;;17.31;100.00;102333.22;5025844;28;20431;-96
2022/08/29 09:26:28;;;;;;;4.18;1.10;;;;;;;17.15;100.00;102323.25;5024796;28;20053;-96
2022/08/29 09:29:12;;;;;;;6.60;1.08;;;;;;;17.22;100.00;102310.63;5025543;28;20077;-93
2022/08/29 09:31:40;;;;;;;3.92;1.42;;;;;;;16.97;100.00;102310.75;5026792;28;20137;-96
2022/08/29 09:34:35;;;;;;;4.30;1.10;;;;;;;16.78;100.00;102282.31;5024718;28;20530;-96
2022/08/29 09:37:27;;;;;;;4.78;1.17;;;;;;;17.07;100.00;102344.72;5026273;28;20052;-96
2022/08/29 09:40:12;;;;;;;3.55;1.10;;;;;;;16.72;100.00;102297.59;5027356;28;20054;-96
2022/08/29 09:43:01;;;;;;;4.47;1.23;;;;;;;16.87;100.00;102334.03;5027275;28;20048;-96
2022/08/29 09:46:02;;;;;;;2.17;0.80;;;;;;;17.13;100.00;102311.00;5026754;28;20050;-96
2022/08/29 09:48:50;;;;;;;4.00;1.00;;;;;;;17.07;100.00;102298.88;5025565;28;20050;-96
2022/08/29 09:51:37;;;;;;;8.43;1.33;;;;;;;17.27;100.00;102330.69;5025767;28;20116;-96
2022/08/29 09:54:29;;;;;;;4.05;1.20;;;;;;;17.17;100.00;102299.38;5022856;28;20053;-96
2022/08/29 09:57:23;;;;;;;5.18;1.30;;;;;;;17.15;100.00;102307.34;5021947;28;20057;-96
2022/08/29 10:00:11;;;;;;;4.00;1.23;;;;;;;17.26;100.00;102328.97;5023042;28;20056;-96
2022/08/29 10:02:55;;;;;;;2.47;0.90;;;;;;;17.40;100.00;102328.41;5023871;28;20100;-96
2022/08/29 10:05:43;;;;;;;3.58;1.00;;;;;;;17.24;100.00;102298.19;5023520;28;20054;-96
2022/08/29 10:08:34;;;;;;;4.30;1.00;;;;;;;17.49;100.00;102318.34;5026462;28;20062;-96
2022/08/29 10:11:14;;;;;;;4.68;1.30;;;;;;;17.19;100.00;102335.44;5031350;28;20045;-96
2022/08/29 10:14:05;;;;;;;4.88;1.23;;;;;;;17.36;100.00;102334.75;5035105;28;20044;-96
2022/08/29 10:18:19;;;;;;;3.35;0.98;;;;;;;17.63;100.00;102339.81;5008190;28;20046;-96
2022/08/29 10:19:59;;;;;;;4.85;1.08;;;;;;;17.31;100.00;102333.22;5035673;28;20050;-96
2022/08/29 10:22:46;;;;;;;2.47;1.02;;;;;;;17.59;100.00;102335.59;5033421;28;20037;-96
2022/08/29 10:25:40;;;;;;;4.85;1.42;;;;;;;17.44;100.00;102339.72;5035495;28;20041;-96
2022/08/29 10:28:35;;;;;;;6.38;1.38;;;;;;;17.58;100.00;102340.03;5031946;28;20080;-94
2022/08/29 10:31:11;;;;;;;3.65;1.10;;;;;;;17.54;100.00;102309.28;5053420;28;20054;-96
2022/08/29 10:34:17;;;;;;;2.88;0.93;;;;;;;17.58;100.00;102315.31;5053476;28;20033;-96
2022/08/29 10:37:18;;;;;;;3.95;1.13;;;;;;;16.84;100.00;102205.44;5053538;28;20049;-96
2022/08/29 10:40:32;;;;;;;3.90;1.17;;;;;;;17.69;100.00;102344.00;5053408;28;20045;-96
2022/08/29 10:43:52;;;;;;;5.00;1.13;;;;;;;17.55;100.00;102348.09;5007656;28;20087;-96
2022/08/29 10:46:53;;;;;;;4.38;1.20;;;;;;;17.52;100.00;102358.81;5054517;28;20042;-96
2022/08/29 10:50:09;;;;;;;3.45;1.17;;;;;;;17.60;100.00;102353.19;5053462;28;20046;-96
2022/08/29 10:53:08;;;;;;;4.05;1.17;;;;;;;17.05;100.00;102312.19;5052651;28;20021;-96
2022/08/29 10:56:07;;;;;;;3.92;1.05;;;;;;;16.51;100.00;102197.00;5052398;28;20537;-96
2022/08/29 10:59:02;;;;;;;3.22;1.00;;;;;;;17.53;100.00;102344.66;5055440;28;20109;-96
2022/08/29 11:01:54;;;;;;;3.67;1.05;;;;;;;17.18;100.00;102251.66;5052857;28;20045;-96
2022/08/29 11:04:52;;;;;;;1.55;0.90;;;;;;;16.87;100.00;102239.69;5052789;28;20054;-96
2022/08/29 11:07:46;;;;;;;2.40;1.00;;;;;;;16.65;100.00;102218.47;5051981;28;20042;-96
2022/08/29 11:10:37;;;;;;;3.60;1.10;;;;;;;17.07;100.00;102254.75;5052644;28;20073;-96
2022/08/29 11:13:42;;;;;;;2.97;0.98;;;;;;;17.36;100.00;102350.63;5052722;28;20065;-96
2022/08/29 11:16:29;;;;;;;4.55;1.17;;;;;;;16.63;100.00;102211.53;5039034;28;20049;-96
2022/08/29 11:19:26;;;;;;;4.00;1.10;;;;;;;16.83;100.00;102240.72;5037994;28;20085;-96
2022/08/29 11:22:25;;;;;;;2.25;1.02;;;;;;;16.54;100.00;102190.72;5056896;28;20045;-96
2022/08/29 11:25:20;;;;;;;2.80;1.00;;;;;;;17.36;100.00;102345.34;5054959;28;20045;-96
2022/08/29 11:28:12;;;;;;;3.55;1.10;;;;;;;16.97;100.00;102287.78;5053515;28;20049;-96
2022/08/29 11:31:10;;;;;;;3.65;0.98;;;;;;;16.75;100.00;102261.31;5049952;28;20029;-96
2022/08/29 11:34:19;;;;;;;1.65;0.90;;;;;;;17.31;100.00;102349.94;5049628;28;20055;-96
2022/08/29 11:37:24;;;;;;;4.30;1.15;;;;;;;16.93;100.00;102290.59;5050037;28;20041;-96
2022/08/29 11:40:31;;;;;;;4.95;1.10;;;;;;;16.53;100.00;102216.31;5050627;28;20053;-96
2022/08/29 11:43:20;;;;;;;4.80;1.08;;;;;;;16.38;100.00;102275.06;5050444;28;20048;-96
2022/08/29 11:46:07;;;;;;;4.93;1.52;;;;;;;16.17;100.00;102240.59;5049349;28;20065;-95
2022/08/29 11:48:51;;;;;;;2.80;1.23;;;;;;;16.21;100.00;102212.28;5050159;28;20143;-96
2022/08/29 11:51:36;;;;;;;6.25;1.50;;;;;;;16.77;100.00;102320.28;5049562;28;20056;-96
2022/08/29 11:54:23;;;;;;;4.97;1.30;;;;;;;17.11;100.00;102364.00;5051416;28;20052;-96
2022/08/29 11:57:04;;;;;;;1.95;0.93;;;;;;;17.22;100.00;102361.78;5053577;28;20046;-96
2022/08/29 11:59:59;;;;;;;2.95;1.05;;;;;;;17.31;100.00;102360.53;5052884;28;20049;-96
2022/08/29 12:02:46;;;;;;;2.75;1.00;;;;;;;16.39;100.00;102213.34;5052508;28;20132;-96
2022/08/29 12:05:39;;;;;;;4.47;1.30;;;;;;;17.40;100.00;102349.56;5053167;28;20057;-96
2022/08/29 12:08:31;;;;;;;3.20;1.10;;;;;;;16.51;100.00;102212.88;5053586;28;20145;-96